sensor_id;sensor_type;location;lat;lon;timestamp;pressure;altitude;pressure_sealevel;temperature;humidity
38806;BME280;25635;51.146;17.162;2022-09-30T00:00:30;99378.59;;;5.82;86.88
38806;BME280;25635;51.146;17.162;2022-09-30T00:02:59;99384.20;;;5.83;87.50
38806;BME280;25635;51.146;17.162;2022-09-30T00:05:25;99395.02;;;5.84;87.68
38806;BME280;25635;51.146;17.162;2022-09-30T00:07:52;99396.75;;;5.82;86.92
38806;BME280;25635;51.146;17.162;2022-09-30T00:10:18;99393.30;;;5.82;86.41
38806;BME280;25635;51.146;17.162;2022-09-30T00:12:44;99389.84;;;5.78;86.53
38806;BME280;25635;51.146;17.162;2022-09-30T00:15:11;99394.16;;;5.76;87.08
38806;BME280;25635;51.146;17.162;2022-09-30T00:17:38;99393.73;;;5.72;87.42
38806;BME280;25635;51.146;17.162;2022-09-30T00:20:05;99389.43;;;5.71;87.79
38806;BME280;25635;51.146;17.162;2022-09-30T00:22:31;99398.92;;;5.72;88.15
38806;BME280;25635;51.146;17.162;2022-09-30T00:24:58;99395.47;;;5.72;87.86
38806;BME280;25635;51.146;17.162;2022-09-30T00:27:24;99395.91;;;5.68;87.51
38806;BME280;25635;51.146;17.162;2022-09-30T00:29:50;99402.82;;;5.66;87.27
38806;BME280;25635;51.146;17.162;2022-09-30T00:32:16;99414.07;;;5.63;87.15
38806;BME280;25635;51.146;17.162;2022-09-30T00:34:42;99413.22;;;5.63;87.68
38806;BME280;25635;51.146;17.162;2022-09-30T00:37:09;99413.63;;;5.62;87.49
38806;BME280;25635;51.146;17.162;2022-09-30T00:39:37;99412.78;;;5.59;87.59
38806;BME280;25635;51.146;17.162;2022-09-30T00:42:06;99417.95;;;5.56;87.49
38806;BME280;25635;51.146;17.162;2022-09-30T00:56:03;99422.27;;;5.52;88.50
38806;BME280;25635;51.146;17.162;2022-09-30T00:59:26;99429.19;;;5.56;88.87
38806;BME280;25635;51.146;17.162;2022-09-30T01:01:20;99429.21;;;5.61;88.80
38806;BME280;25635;51.146;17.162;2022-09-30T01:03:58;99432.23;;;5.63;88.67
38806;BME280;25635;51.146;17.162;2022-09-30T01:06:25;99440.44;;;5.66;88.94
38806;BME280;25635;51.146;17.162;2022-09-30T01:08:51;99436.11;;;5.68;88.70
38806;BME280;25635;51.146;17.162;2022-09-30T01:11:20;99440.86;;;5.68;88.91
38806;BME280;25635;51.146;17.162;2022-09-30T01:13:49;99443.45;;;5.68;88.80
38806;BME280;25635;51.146;17.162;2022-09-30T01:16:44;99440.86;;;5.68;88.32
38806;BME280;25635;51.146;17.162;2022-09-30T01:31:53;99433.08;;;5.82;89.33
38806;BME280;25635;51.146;17.162;2022-09-30T01:34:30;99432.62;;;5.87;89.38
38806;BME280;25635;51.146;17.162;2022-09-30T01:37:25;99431.35;;;5.92;89.29
38806;BME280;25635;51.146;17.162;2022-09-30T01:40:16;99435.70;;;5.96;89.34
38806;BME280;25635;51.146;17.162;2022-09-30T01:45:38;99423.56;;;6.00;89.51
38806;BME280;25635;51.146;17.162;2022-09-30T01:50:58;99421.85;;;5.99;89.52
38806;BME280;25635;51.146;17.162;2022-09-30T01:53:47;99424.02;;;6.01;89.45
38806;BME280;25635;51.146;17.162;2022-09-30T01:56:41;99422.27;;;6.01;89.58
38806;BME280;25635;51.146;17.162;2022-09-30T01:59:20;99431.34;;;6.06;89.69
38806;BME280;25635;51.146;17.162;2022-09-30T02:02:15;99427.46;;;6.09;89.50
38806;BME280;25635;51.146;17.162;2022-09-30T02:04:52;99425.70;;;6.13;89.69
38806;BME280;25635;51.146;17.162;2022-09-30T02:07:25;99424.83;;;6.18;89.75
38806;BME280;25635;51.146;17.162;2022-09-30T02:10:04;99432.16;;;6.26;89.76
38806;BME280;25635;51.146;17.162;2022-09-30T02:12:45;99427.81;;;6.33;89.84
38806;BME280;25635;51.146;17.162;2022-09-30T02:15:19;99429.09;;;6.39;89.70
38806;BME280;25635;51.146;17.162;2022-09-30T02:18:00;99423.46;;;6.43;89.57
38806;BME280;25635;51.146;17.162;2022-09-30T02:20:37;99432.11;;;6.42;89.45
38806;BME280;25635;51.146;17.162;2022-09-30T02:23:10;99425.20;;;6.42;89.39
38806;BME280;25635;51.146;17.162;2022-09-30T02:25:41;99425.61;;;6.42;89.56
38806;BME280;25635;51.146;17.162;2022-09-30T02:28:11;99428.66;;;6.41;89.54
38806;BME280;25635;51.146;17.162;2022-09-30T02:30:44;99429.52;;;6.43;89.74
38806;BME280;25635;51.146;17.162;2022-09-30T02:33:18;99424.32;;;6.43;89.60
38806;BME280;25635;51.146;17.162;2022-09-30T02:35:51;99425.19;;;6.47;89.50
38806;BME280;25635;51.146;17.162;2022-09-30T02:38:28;99429.94;;;6.51;89.47
38806;BME280;25635;51.146;17.162;2022-09-30T02:43:24;99420.38;;;6.57;89.32
38806;BME280;25635;51.146;17.162;2022-09-30T03:00:30;99426.83;;;6.65;89.38
38806;BME280;25635;51.146;17.162;2022-09-30T03:03:04;99430.72;;;6.66;89.40
38806;BME280;25635;51.146;17.162;2022-09-30T03:05:29;99441.97;;;6.68;89.51
38806;BME280;25635;51.146;17.162;2022-09-30T03:07:55;99440.23;;;6.70;89.49
38806;BME280;25635;51.146;17.162;2022-09-30T03:10:23;99441.09;;;6.74;89.60
38806;BME280;25635;51.146;17.162;2022-09-30T03:21:48;99456.19;;;6.84;89.75
38806;BME280;25635;51.146;17.162;2022-09-30T03:30:19;99463.10;;;6.88;89.94
38806;BME280;25635;51.146;17.162;2022-09-30T03:33:06;99454.45;;;6.89;89.90
38806;BME280;25635;51.146;17.162;2022-09-30T03:38:52;99459.17;;;6.94;89.80
38806;BME280;25635;51.146;17.162;2022-09-30T03:41:33;99473.47;;;6.97;89.79
38806;BME280;25635;51.146;17.162;2022-09-30T03:46:44;99478.17;;;7.08;89.48
38806;BME280;25635;51.146;17.162;2022-09-30T03:49:23;99474.27;;;7.12;89.52
38806;BME280;25635;51.146;17.162;2022-09-30T03:51:52;99475.98;;;7.14;89.45
38806;BME280;25635;51.146;17.162;2022-09-30T03:54:20;99477.28;;;7.14;89.55
38806;BME280;25635;51.146;17.162;2022-09-30T03:56:47;99473.83;;;7.14;89.59
38806;BME280;25635;51.146;17.162;2022-09-30T03:59:25;99474.69;;;7.14;89.55
38806;BME280;25635;51.146;17.162;2022-09-30T04:01:54;99477.70;;;7.15;89.55
38806;BME280;25635;51.146;17.162;2022-09-30T04:04:23;99482.89;;;7.17;89.62
38806;BME280;25635;51.146;17.162;2022-09-30T04:06:50;99484.61;;;7.19;89.56
38806;BME280;25635;51.146;17.162;2022-09-30T04:09:16;99484.16;;;7.21;89.68
38806;BME280;25635;51.146;17.162;2022-09-30T04:11:43;99483.72;;;7.25;89.66
38806;BME280;25635;51.146;17.162;2022-09-30T04:14:09;99481.98;;;7.27;89.57
38806;BME280;25635;51.146;17.162;2022-09-30T04:16:35;99476.77;;;7.30;89.74
38806;BME280;25635;51.146;17.162;2022-09-30T04:19:02;99475.87;;;7.31;89.89
38806;BME280;25635;51.146;17.162;2022-09-30T04:21:28;99472.84;;;7.31;89.99
38806;BME280;25635;51.146;17.162;2022-09-30T04:23:55;99476.77;;;7.30;89.98
38806;BME280;25635;51.146;17.162;2022-09-30T04:26:22;99474.58;;;7.29;89.99
38806;BME280;25635;51.146;17.162;2022-09-30T04:28:48;99479.38;;;7.30;90.07
38806;BME280;25635;51.146;17.162;2022-09-30T04:31:15;99471.12;;;7.32;89.98
38806;BME280;25635;51.146;17.162;2022-09-30T04:33:46;99473.28;;;7.34;89.99
38806;BME280;25635;51.146;17.162;2022-09-30T04:36:12;99473.24;;;7.36;90.24
38806;BME280;25635;51.146;17.162;2022-09-30T04:38:38;99465.44;;;7.37;90.25
38806;BME280;25635;51.146;17.162;2022-09-30T04:41:06;99471.05;;;7.41;90.30
38806;BME280;25635;51.146;17.162;2022-09-30T04:43:35;99474.06;;;7.45;90.25
38806;BME280;25635;51.146;17.162;2022-09-30T04:46:01;99467.52;;;7.48;90.25
38806;BME280;25635;51.146;17.162;2022-09-30T04:48:28;99475.32;;;7.51;90.06
38806;BME280;25635;51.146;17.162;2022-09-30T04:50:57;99482.67;;;7.55;89.90
38806;BME280;25635;51.146;17.162;2022-09-30T04:53:26;99488.73;;;7.56;89.71
38806;BME280;25635;51.146;17.162;2022-09-30T04:55:58;99494.80;;;7.55;89.69
38806;BME280;25635;51.146;17.162;2022-09-30T04:58:25;99493.53;;;7.53;89.59
38806;BME280;25635;51.146;17.162;2022-09-30T05:01:03;99495.28;;;7.51;89.93
38806;BME280;25635;51.146;17.162;2022-09-30T05:03:34;99494.80;;;7.55;90.15
38806;BME280;25635;51.146;17.162;2022-09-30T05:06:01;99502.20;;;7.54;90.24
38806;BME280;25635;51.146;17.162;2022-09-30T05:08:29;99502.20;;;7.52;90.23
38806;BME280;25635;51.146;17.162;2022-09-30T05:11:02;99509.14;;;7.53;90.33
38806;BME280;25635;51.146;17.162;2022-09-30T05:13:32;99508.66;;;7.57;90.06
38806;BME280;25635;51.146;17.162;2022-09-30T05:16:00;99514.72;;;7.60;90.10
38806;BME280;25635;51.146;17.162;2022-09-30T05:18:27;99525.98;;;7.64;90.13
38806;BME280;25635;51.146;17.162;2022-09-30T05:20:56;99531.59;;;7.65;90.12
38806;BME280;25635;51.146;17.162;2022-09-30T05:23:24;99538.55;;;7.66;90.21
38806;BME280;25635;51.146;17.162;2022-09-30T05:25:53;99552.86;;;7.66;90.18
38806;BME280;25635;51.146;17.162;2022-09-30T05:28:19;99559.33;;;7.67;90.13
38806;BME280;25635;51.146;17.162;2022-09-30T05:30:46;99561.49;;;7.71;90.59
38806;BME280;25635;51.146;17.162;2022-09-30T05:33:15;99562.34;;;7.76;90.67
38806;BME280;25635;51.146;17.162;2022-09-30T05:35:42;99558.40;;;7.81;90.59
38806;BME280;25635;51.146;17.162;2022-09-30T05:38:09;99558.80;;;7.86;90.71
38806;BME280;25635;51.146;17.162;2022-09-30T05:40:36;99562.67;;;7.88;90.51
38806;BME280;25635;51.146;17.162;2022-09-30T05:43:04;99559.63;;;7.90;90.36
38806;BME280;25635;51.146;17.162;2022-09-30T05:45:32;99551.36;;;7.94;90.56
38806;BME280;25635;51.146;17.162;2022-09-30T05:47:59;99556.53;;;7.98;90.43
38806;BME280;25635;51.146;17.162;2022-09-30T05:50:25;99566.48;;;8.03;90.54
38806;BME280;25635;51.146;17.162;2022-09-30T05:52:52;99570.31;;;8.11;90.57
38806;BME280;25635;51.146;17.162;2022-09-30T05:55:19;99572.01;;;8.18;90.73
38806;BME280;25635;51.146;17.162;2022-09-30T05:57:48;99571.96;;;8.24;90.82
38806;BME280;25635;51.146;17.162;2022-09-30T06:00:17;99572.77;;;8.29;90.64
38806;BME280;25635;51.146;17.162;2022-09-30T06:02:44;99570.56;;;8.33;90.67
38806;BME280;25635;51.146;17.162;2022-09-30T06:05:11;99568.81;;;8.36;90.61
38806;BME280;25635;51.146;17.162;2022-09-30T06:07:38;99569.25;;;8.37;90.47
38806;BME280;25635;51.146;17.162;2022-09-30T06:10:06;99563.14;;;8.39;90.56
38806;BME280;25635;51.146;17.162;2022-09-30T06:12:36;99567.89;;;8.43;90.71
38806;BME280;25635;51.146;17.162;2022-09-30T06:15:03;99576.96;;;8.49;90.85
38806;BME280;25635;51.146;17.162;2022-09-30T06:17:32;99588.18;;;8.57;90.79
38806;BME280;25635;51.146;17.162;2022-09-30T06:19:59;99596.84;;;8.61;90.52
38806;BME280;25635;51.146;17.162;2022-09-30T06:22:26;99599.80;;;8.68;90.76
38806;BME280;25635;51.146;17.162;2022-09-30T06:24:52;99608.00;;;8.75;90.64
38806;BME280;25635;51.146;17.162;2022-09-30T06:27:19;99609.25;;;8.81;90.52
38806;BME280;25635;51.146;17.162;2022-09-30T06:29:46;99599.66;;;8.85;90.20
38806;BME280;25635;51.146;17.162;2022-09-30T06:32:13;99608.73;;;8.89;90.29
38806;BME280;25635;51.146;17.162;2022-09-30T06:34:39;99609.54;;;8.93;90.21
38806;BME280;25635;51.146;17.162;2022-09-30T06:37:05;99607.77;;;8.98;90.34
38806;BME280;25635;51.146;17.162;2022-09-30T06:39:31;99600.28;;;9.05;90.43
38806;BME280;25635;51.146;17.162;2022-09-30T06:41:58;99605.03;;;9.09;89.99
38806;BME280;25635;51.146;17.162;2022-09-30T06:44:24;99612.86;;;9.09;89.74
38806;BME280;25635;51.146;17.162;2022-09-30T06:46:52;99616.30;;;9.14;90.07
38806;BME280;25635;51.146;17.162;2022-09-30T06:49:19;99617.09;;;9.18;89.81
38806;BME280;25635;51.146;17.162;2022-09-30T06:51:47;99626.14;;;9.27;89.94
38806;BME280;25635;51.146;17.162;2022-09-30T06:54:15;99627.78;;;9.34;89.81
38806;BME280;25635;51.146;17.162;2022-09-30T06:56:41;99625.55;;;9.40;90.04
38806;BME280;25635;51.146;17.162;2022-09-30T06:59:09;99620.72;;;9.44;89.78
38806;BME280;25635;51.146;17.162;2022-09-30T07:01:36;99626.28;;;9.49;89.74
38806;BME280;25635;51.146;17.162;2022-09-30T07:04:02;99627.57;;;9.51;89.72
38806;BME280;25635;51.146;17.162;2022-09-30T07:06:30;99627.51;;;9.56;89.48
38806;BME280;25635;51.146;17.162;2022-09-30T07:08:56;99631.80;;;9.60;89.65
38806;BME280;25635;51.146;17.162;2022-09-30T07:11:23;99632.19;;;9.64;89.86
38806;BME280;25635;51.146;17.162;2022-09-30T07:13:49;99632.55;;;9.71;89.63
38806;BME280;25635;51.146;17.162;2022-09-30T07:16:17;99631.58;;;9.77;89.61
38806;BME280;25635;51.146;17.162;2022-09-30T07:18:44;99633.27;;;9.81;89.47
38806;BME280;25635;51.146;17.162;2022-09-30T07:21:12;99636.69;;;9.86;89.19
38806;BME280;25635;51.146;17.162;2022-09-30T07:23:41;99636.61;;;9.92;89.29
38806;BME280;25635;51.146;17.162;2022-09-30T07:26:18;99646.53;;;9.97;89.24
38806;BME280;25635;51.146;17.162;2022-09-30T07:28:46;99646.91;;;10.01;89.31
38806;BME280;25635;51.146;17.162;2022-09-30T07:31:15;99651.20;;;10.05;89.39
38806;BME280;25635;51.146;17.162;2022-09-30T07:33:45;99647.66;;;10.09;89.01
38806;BME280;25635;51.146;17.162;2022-09-30T07:36:13;99654.59;;;10.12;88.80
38806;BME280;25635;51.146;17.162;2022-09-30T07:38:42;99661.09;;;10.15;88.83
38806;BME280;25635;51.146;17.162;2022-09-30T07:41:18;99659.78;;;10.15;88.46
38806;BME280;25635;51.146;17.162;2022-09-30T07:43:47;99669.72;;;10.20;88.55
38806;BME280;25635;51.146;17.162;2022-09-30T07:46:16;99674.45;;;10.25;88.59
38806;BME280;25635;51.146;17.162;2022-09-30T07:48:50;99682.23;;;10.27;88.46
38806;BME280;25635;51.146;17.162;2022-09-30T07:51:22;99683.53;;;10.31;88.46
38806;BME280;25635;51.146;17.162;2022-09-30T07:53:54;99679.55;;;10.34;88.14
38806;BME280;25635;51.146;17.162;2022-09-30T07:56:23;99681.33;;;10.32;88.20
38806;BME280;25635;51.146;17.162;2022-09-30T07:58:55;99678.27;;;10.33;88.35
38806;BME280;25635;51.146;17.162;2022-09-30T08:01:25;99681.70;;;10.37;88.33
38806;BME280;25635;51.146;17.162;2022-09-30T08:03:59;99683.83;;;10.40;88.20
38806;BME280;25635;51.146;17.162;2022-09-30T08:06:28;99684.67;;;10.42;88.18
38806;BME280;25635;51.146;17.162;2022-09-30T08:08:56;99683.29;;;10.47;88.05
38806;BME280;25635;51.146;17.162;2022-09-30T08:11:24;99682.35;;;10.51;88.03
38806;BME280;25635;51.146;17.162;2022-09-30T08:13:56;99676.59;;;10.56;87.54
38806;BME280;25635;51.146;17.162;2022-09-30T08:16:22;99680.05;;;10.58;87.73
38806;BME280;25635;51.146;17.162;2022-09-30T08:18:57;99688.73;;;10.60;86.97
38806;BME280;25635;51.146;17.162;2022-09-30T08:21:26;99687.87;;;10.60;87.22
38806;BME280;25635;51.146;17.162;2022-09-30T08:23:53;99695.64;;;10.64;87.52
38806;BME280;25635;51.146;17.162;2022-09-30T08:26:20;99693.83;;;10.69;87.71
38806;BME280;25635;51.146;17.162;2022-09-30T08:28:46;99698.52;;;10.74;87.49
38806;BME280;25635;51.146;17.162;2022-09-30T08:31:15;99698.49;;;10.78;87.19
38806;BME280;25635;51.146;17.162;2022-09-30T08:33:44;99698.41;;;10.82;87.22
38806;BME280;25635;51.146;17.162;2022-09-30T08:36:20;99702.20;;;10.90;87.54
38806;BME280;25635;51.146;17.162;2022-09-30T08:38:47;99697.17;;;11.03;87.98
38806;BME280;25635;51.146;17.162;2022-09-30T08:44:06;99700.27;;;11.25;87.74
38806;BME280;25635;51.146;17.162;2022-09-30T08:52:43;99708.94;;;11.50;87.01
38806;BME280;25635;51.146;17.162;2022-09-30T08:55:15;99714.04;;;11.58;87.19
38806;BME280;25635;51.146;17.162;2022-09-30T08:57:43;99710.80;;;11.67;86.85
38806;BME280;25635;51.146;17.162;2022-09-30T09:00:12;99704.53;;;11.74;87.07
38806;BME280;25635;51.146;17.162;2022-09-30T09:02:59;99710.05;;;11.82;85.99
38806;BME280;25635;51.146;17.162;2022-09-30T09:11:02;99716.89;;;12.11;86.32
38806;BME280;25635;51.146;17.162;2022-09-30T09:13:51;99720.95;;;12.25;86.31
38806;BME280;25635;51.146;17.162;2022-09-30T09:16:28;99730.37;;;12.33;85.46
38806;BME280;25635;51.146;17.162;2022-09-30T09:19:10;99727.13;;;12.42;84.76
38806;BME280;25635;51.146;17.162;2022-09-30T09:21:54;99727.47;;;12.46;84.68
38806;BME280;25635;51.146;17.162;2022-09-30T09:24:27;99735.63;;;12.53;83.95
38806;BME280;25635;51.146;17.162;2022-09-30T09:26:57;99742.30;;;12.66;85.04
38806;BME280;25635;51.146;17.162;2022-09-30T09:29:43;99729.28;;;12.80;84.64
38806;BME280;25635;51.146;17.162;2022-09-30T09:32:20;99731.16;;;12.92;84.89
38806;BME280;25635;51.146;17.162;2022-09-30T09:34:54;99729.70;;;13.15;85.63
38806;BME280;25635;51.146;17.162;2022-09-30T09:37:47;99731.53;;;13.31;84.34
38806;BME280;25635;51.146;17.162;2022-09-30T09:47:07;99734.24;;;13.90;84.37
38806;BME280;25635;51.146;17.162;2022-09-30T09:49:35;99732.67;;;14.14;82.85
38806;BME280;25635;51.146;17.162;2022-09-30T09:52:18;99732.05;;;14.34;82.44
38806;BME280;25635;51.146;17.162;2022-09-30T09:54:51;99731.91;;;14.54;83.14
38806;BME280;25635;51.146;17.162;2022-09-30T09:57:20;99731.28;;;14.74;81.63
38806;BME280;25635;51.146;17.162;2022-09-30T10:03:13;99736.52;;;15.02;80.63
38806;BME280;25635;51.146;17.162;2022-09-30T10:05:40;99734.28;;;15.16;80.24
38806;BME280;25635;51.146;17.162;2022-09-30T10:08:22;99740.28;;;15.33;80.16
38806;BME280;25635;51.146;17.162;2022-09-30T10:10:57;99745.05;;;15.47;77.36
38806;BME280;25635;51.146;17.162;2022-09-30T10:13:26;99749.00;;;15.47;77.36
38806;BME280;25635;51.146;17.162;2022-09-30T10:15:56;99742.11;;;15.43;77.62
38806;BME280;25635;51.146;17.162;2022-09-30T10:18:31;99745.00;;;15.49;78.17
38806;BME280;25635;51.146;17.162;2022-09-30T10:21:00;99744.78;;;15.55;77.85
38806;BME280;25635;51.146;17.162;2022-09-30T10:23:38;99741.52;;;15.60;78.14
38806;BME280;25635;51.146;17.162;2022-09-30T10:26:17;99738.78;;;15.63;77.37
38806;BME280;25635;51.146;17.162;2022-09-30T10:29:00;99741.88;;;15.63;76.90
38806;BME280;25635;51.146;17.162;2022-09-30T10:31:35;99747.42;;;15.55;76.37
38806;BME280;25635;51.146;17.162;2022-09-30T10:36:45;99747.80;;;15.56;77.00
38806;BME280;25635;51.146;17.162;2022-09-30T10:39:25;99742.48;;;15.57;76.73
38806;BME280;25635;51.146;17.162;2022-09-30T10:42:07;99743.54;;;15.65;76.71
38806;BME280;25635;51.146;17.162;2022-09-30T10:44:43;99741.16;;;15.71;76.51
38806;BME280;25635;51.146;17.162;2022-09-30T10:47:21;99741.69;;;15.80;76.36
38806;BME280;25635;51.146;17.162;2022-09-30T10:50:09;99738.73;;;15.90;77.28
38806;BME280;25635;51.146;17.162;2022-09-30T10:52:53;99743.23;;;16.10;76.90
38806;BME280;25635;51.146;17.162;2022-09-30T10:55:27;99749.42;;;16.32;76.47
38806;BME280;25635;51.146;17.162;2022-09-30T10:58:47;99739.94;;;16.50;75.06
38806;BME280;25635;51.146;17.162;2022-09-30T11:00:49;99747.75;;;16.64;75.52
38806;BME280;25635;51.146;17.162;2022-09-30T11:03:24;99746.32;;;16.77;74.03
38806;BME280;25635;51.146;17.162;2022-09-30T11:05:53;99743.00;;;16.84;72.46
38806;BME280;25635;51.146;17.162;2022-09-30T11:08:29;99743.81;;;16.96;74.27
38806;BME280;25635;51.146;17.162;2022-09-30T11:11:20;99750.98;;;17.14;73.56
38806;BME280;25635;51.146;17.162;2022-09-30T11:13:55;99749.67;;;17.25;72.69
38806;BME280;25635;51.146;17.162;2022-09-30T11:19:43;99736.84;;;17.56;72.68
38806;BME280;25635;51.146;17.162;2022-09-30T11:25:16;99729.61;;;17.80;71.14
38806;BME280;25635;51.146;17.162;2022-09-30T11:28:13;99736.65;;;18.00;71.98
38806;BME280;25635;51.146;17.162;2022-09-30T11:39:35;99734.73;;;18.51;69.15
38806;BME280;25635;51.146;17.162;2022-09-30T11:44:45;99732.02;;;18.52;68.87
38806;BME280;25635;51.146;17.162;2022-09-30T11:47:26;99737.74;;;18.62;68.08
38806;BME280;25635;51.146;17.162;2022-09-30T11:50:07;99741.96;;;18.66;67.30
38806;BME280;25635;51.146;17.162;2022-09-30T11:53:03;99745.77;;;18.69;68.11
38806;BME280;25635;51.146;17.162;2022-09-30T11:58:10;99743.28;;;18.94;67.51
38806;BME280;25635;51.146;17.162;2022-09-30T12:00:48;99742.43;;;19.02;66.29
38806;BME280;25635;51.146;17.162;2022-09-30T12:03:25;99744.84;;;19.07;66.23
38806;BME280;25635;51.146;17.162;2022-09-30T12:06:01;99743.28;;;19.11;65.32
38806;BME280;25635;51.146;17.162;2022-09-30T12:08:32;99741.41;;;19.13;64.41
38806;BME280;25635;51.146;17.162;2022-09-30T12:11:01;99740.94;;;19.05;64.74
38806;BME280;25635;51.146;17.162;2022-09-30T12:13:37;99745.55;;;19.10;65.44
38806;BME280;25635;51.146;17.162;2022-09-30T12:16:22;99746.88;;;19.19;65.33
38806;BME280;25635;51.146;17.162;2022-09-30T12:18:53;99753.50;;;19.28;64.92
38806;BME280;25635;51.146;17.162;2022-09-30T12:24:39;99758.19;;;19.31;63.66
38806;BME280;25635;51.146;17.162;2022-09-30T12:27:26;99760.06;;;19.29;60.70
38806;BME280;25635;51.146;17.162;2022-09-30T12:30:03;99758.88;;;19.17;63.17
38806;BME280;25635;51.146;17.162;2022-09-30T12:36:13;99769.03;;;19.27;62.84
38806;BME280;25635;51.146;17.162;2022-09-30T12:42:25;99778.85;;;19.24;63.00
38806;BME280;25635;51.146;17.162;2022-09-30T12:47:39;99775.42;;;19.31;62.82
38806;BME280;25635;51.146;17.162;2022-09-30T12:50:14;99778.92;;;19.32;62.27
38806;BME280;25635;51.146;17.162;2022-09-30T12:52:43;99770.25;;;19.28;61.63
38806;BME280;25635;51.146;17.162;2022-09-30T12:55:25;99769.71;;;19.21;61.87
38806;BME280;25635;51.146;17.162;2022-09-30T12:57:59;99766.14;;;19.22;62.43
38806;BME280;25635;51.146;17.162;2022-09-30T13:00:29;99765.67;;;19.23;62.16
38806;BME280;25635;51.146;17.162;2022-09-30T13:03:04;99765.27;;;19.22;61.88
38806;BME280;25635;51.146;17.162;2022-09-30T13:10:44;99755.75;;;19.18;61.48
38806;BME280;25635;51.146;17.162;2022-09-30T13:15:51;99757.31;;;19.13;61.41
38806;BME280;25635;51.146;17.162;2022-09-30T13:21:15;99761.52;;;19.17;61.62
38806;BME280;25635;51.146;17.162;2022-09-30T13:23:54;99760.61;;;19.18;61.25
38806;BME280;25635;51.146;17.162;2022-09-30T13:26:36;99753.98;;;19.18;61.47
38806;BME280;25635;51.146;17.162;2022-09-30T13:34:29;99754.12;;;19.15;60.99
38806;BME280;25635;51.146;17.162;2022-09-30T13:36:59;99753.50;;;19.10;59.84
38806;BME280;25635;51.146;17.162;2022-09-30T13:48:27;99756.59;;;18.83;59.25
38806;BME280;25635;51.146;17.162;2022-09-30T13:50:52;99755.02;;;18.79;60.05
38806;BME280;25635;51.146;17.162;2022-09-30T13:56:06;99758.23;;;18.76;59.61
38806;BME280;25635;51.146;17.162;2022-09-30T13:58:48;99769.54;;;18.71;59.37
38806;BME280;25635;51.146;17.162;2022-09-30T14:27:01;99762.70;;;18.10;59.40
38806;BME280;25635;51.146;17.162;2022-09-30T14:29:59;99766.01;;;18.05;59.85
38806;BME280;25635;51.146;17.162;2022-09-30T14:32:48;99764.91;;;18.00;59.81
38806;BME280;25635;51.146;17.162;2022-09-30T14:35:28;99763.38;;;17.94;59.72
38806;BME280;25635;51.146;17.162;2022-09-30T14:38:14;99765.39;;;17.89;59.55
38806;BME280;25635;51.146;17.162;2022-09-30T14:40:53;99768.31;;;17.83;59.35
38806;BME280;25635;51.146;17.162;2022-09-30T14:43:25;99776.55;;;17.75;59.60
38806;BME280;25635;51.146;17.162;2022-09-30T14:45:55;99773.73;;;17.70;59.38
38806;BME280;25635;51.146;17.162;2022-09-30T14:48:26;99779.13;;;17.67;59.57
38806;BME280;25635;51.146;17.162;2022-09-30T14:51:01;99776.64;;;17.63;59.52
38806;BME280;25635;51.146;17.162;2022-09-30T14:53:34;99777.23;;;17.60;59.20
38806;BME280;25635;51.146;17.162;2022-09-30T14:56:21;99780.72;;;17.50;59.33
38806;BME280;25635;51.146;17.162;2022-09-30T14:58:56;99777.02;;;17.44;59.85
38806;BME280;25635;51.146;17.162;2022-09-30T15:01:32;99766.38;;;17.35;59.54
38806;BME280;25635;51.146;17.162;2022-09-30T15:04:12;99773.86;;;17.26;59.69
38806;BME280;25635;51.146;17.162;2022-09-30T15:06:46;99775.55;;;17.16;59.20
38806;BME280;25635;51.146;17.162;2022-09-30T15:09:34;99782.28;;;17.03;59.70
38806;BME280;25635;51.146;17.162;2022-09-30T15:12:26;99787.64;;;16.90;59.86
38806;BME280;25635;51.146;17.162;2022-09-30T15:14:54;99789.38;;;16.79;60.36
38806;BME280;25635;51.146;17.162;2022-09-30T15:17:33;99803.94;;;16.67;60.25
38806;BME280;25635;51.146;17.162;2022-09-30T15:20:22;99795.28;;;16.52;60.90
38806;BME280;25635;51.146;17.162;2022-09-30T15:22:44;99788.34;;;16.37;60.78
38806;BME280;25635;51.146;17.162;2022-09-30T15:25:11;99783.38;;;16.18;60.85
38806;BME280;25635;51.146;17.162;2022-09-30T15:27:38;99782.69;;;16.01;61.29
38806;BME280;25635;51.146;17.162;2022-09-30T15:33:00;99789.19;;;15.79;62.21
38806;BME280;25635;51.146;17.162;2022-09-30T15:35:30;99794.09;;;15.65;62.11
38806;BME280;25635;51.146;17.162;2022-09-30T15:40:47;99798.58;;;15.36;62.72
38806;BME280;25635;51.146;17.162;2022-09-30T15:43:36;99804.77;;;15.22;63.09
38806;BME280;25635;51.146;17.162;2022-09-30T15:46:25;99814.89;;;15.07;62.98
38806;BME280;25635;51.146;17.162;2022-09-30T15:49:00;99814.27;;;14.86;63.75
38806;BME280;25635;51.146;17.162;2022-09-30T15:51:36;99822.23;;;14.69;64.54
38806;BME280;25635;51.146;17.162;2022-09-30T15:54:29;99822.23;;;14.69;64.54
38806;BME280;25635;51.146;17.162;2022-09-30T15:56:59;99819.80;;;14.63;64.49
38806;BME280;25635;51.146;17.162;2022-09-30T16:00:00;99824.85;;;14.54;64.48
38806;BME280;25635;51.146;17.162;2022-09-30T16:02:30;99821.48;;;14.49;64.62
38806;BME280;25635;51.146;17.162;2022-09-30T16:04:57;99816.97;;;14.39;64.80
38806;BME280;25635;51.146;17.162;2022-09-30T16:07:28;99808.48;;;14.30;64.91
38806;BME280;25635;51.146;17.162;2022-09-30T16:09:56;99808.80;;;14.19;65.10
38806;BME280;25635;51.146;17.162;2022-09-30T16:12:29;99816.04;;;14.11;65.55
38806;BME280;25635;51.146;17.162;2022-09-30T16:15:05;99817.23;;;13.99;65.66
38806;BME280;25635;51.146;17.162;2022-09-30T16:17:36;99818.86;;;13.88;65.74
38806;BME280;25635;51.146;17.162;2022-09-30T16:25:30;99815.50;;;13.50;66.36
38806;BME280;25635;51.146;17.162;2022-09-30T16:28:00;99821.89;;;13.40;67.00
38806;BME280;25635;51.146;17.162;2022-09-30T16:30:43;99837.40;;;13.33;67.44
38806;BME280;25635;51.146;17.162;2022-09-30T16:33:12;99841.58;;;13.22;67.53
38806;BME280;25635;51.146;17.162;2022-09-30T16:35:43;99848.34;;;13.13;67.84